createdAt,value
2018-05-25T00:01:52.001Z,9.43
2018-05-25T00:04:18.593Z,6.67
2018-05-25T00:06:45.112Z,6.63
2018-05-25T00:09:11.753Z,6.80
2018-05-25T00:11:38.418Z,6.93
2018-05-25T00:14:05.233Z,6.70
2018-05-25T00:16:31.817Z,6.60
2018-05-25T00:18:58.468Z,5.87
2018-05-25T00:21:25.058Z,5.83
2018-05-25T00:23:51.709Z,6.47
2018-05-25T00:26:18.459Z,6.33
2018-05-25T00:28:44.980Z,5.70
2018-05-25T00:31:11.618Z,6.10
2018-05-25T00:33:38.384Z,7.00
2018-05-25T00:36:05.014Z,6.40
2018-05-25T00:38:31.525Z,6.37
2018-05-25T00:40:58.323Z,6.73
2018-05-25T00:43:25.652Z,6.20
2018-05-25T00:45:52.362Z,6.83
2018-05-25T00:50:52.421Z,6.73
2018-05-25T00:53:19.110Z,6.67
2018-05-25T00:55:45.662Z,7.60
2018-05-25T00:58:12.599Z,6.60
2018-05-25T01:00:39.161Z,6.80
2018-05-25T01:03:05.768Z,6.87
2018-05-25T01:05:32.252Z,7.30
2018-05-25T01:07:59.054Z,7.33
2018-05-25T01:10:25.702Z,7.90
2018-05-25T01:12:52.234Z,8.57
2018-05-25T01:15:18.789Z,9.03
2018-05-25T01:17:45.533Z,9.30
2018-05-25T01:20:12.169Z,9.20
2018-05-25T01:22:39.040Z,7.77
2018-05-25T01:25:05.551Z,7.60
2018-05-25T01:27:32.248Z,7.03
2018-05-25T01:29:59.077Z,7.43
2018-05-25T01:32:25.748Z,6.43
2018-05-25T01:34:52.436Z,6.63
2018-05-25T01:37:19.090Z,7.03
2018-05-25T01:39:45.685Z,7.03
2018-05-25T01:42:12.345Z,7.10
2018-05-25T01:44:39.081Z,6.83
2018-05-25T01:47:05.698Z,6.80
2018-05-25T01:49:32.293Z,7.33
2018-05-25T01:51:58.820Z,7.13
2018-05-25T01:54:25.468Z,6.87
2018-05-25T01:56:52.027Z,6.20
2018-05-25T01:59:18.741Z,7.10
2018-05-25T02:01:45.286Z,6.87
2018-05-25T02:04:12.117Z,8.00
2018-05-25T02:06:38.629Z,9.00
2018-05-25T02:09:05.248Z,7.83
2018-05-25T02:11:31.968Z,6.93
2018-05-25T02:13:58.532Z,7.63
2018-05-25T02:16:25.220Z,6.73
2018-05-25T02:18:51.974Z,6.60
2018-05-25T02:21:18.636Z,6.73
2018-05-25T02:23:45.301Z,7.47
2018-05-25T02:26:11.887Z,7.80
2018-05-25T02:28:38.432Z,7.03
2018-05-25T02:31:05.089Z,7.83
2018-05-25T02:33:31.715Z,7.73
2018-05-25T02:35:58.305Z,7.77
2018-05-25T02:38:24.973Z,7.70
2018-05-25T02:40:51.586Z,8.13
2018-05-25T02:43:18.337Z,7.67
2018-05-25T02:45:44.860Z,7.50
2018-05-25T02:48:12.169Z,7.97
2018-05-25T02:50:38.812Z,7.50
2018-05-25T02:53:05.513Z,7.73
2018-05-25T02:55:32.236Z,8.10
2018-05-25T02:57:58.943Z,8.13
2018-05-25T03:00:25.596Z,8.50
2018-05-25T03:02:53.045Z,7.63
2018-05-25T03:05:19.961Z,7.33
2018-05-25T03:07:46.589Z,7.93
2018-05-25T03:10:13.175Z,7.60
2018-05-25T03:12:41.788Z,7.87
2018-05-25T03:15:08.352Z,8.23
2018-05-25T03:17:35.909Z,8.23
2018-05-25T03:20:04.436Z,7.37
2018-05-25T03:22:32.198Z,8.03
2018-05-25T03:25:00.086Z,7.30
2018-05-25T03:27:26.975Z,7.13
2018-05-25T03:29:54.205Z,7.23
2018-05-25T03:32:27.964Z,7.83
2018-05-25T03:35:00.073Z,7.23
2018-05-25T03:37:30.833Z,8.07
2018-05-25T03:39:57.836Z,7.50
2018-05-25T03:42:25.245Z,7.90
2018-05-25T03:44:51.853Z,7.40
2018-05-25T03:47:18.568Z,7.07
2018-05-25T03:49:45.046Z,7.50
2018-05-25T03:52:11.693Z,7.77
2018-05-25T03:54:38.420Z,7.83
2018-05-25T03:57:05.025Z,8.20
2018-05-25T03:59:43.752Z,9.80
2018-05-25T04:02:10.353Z,9.53
2018-05-25T04:04:36.892Z,9.47
2018-05-25T04:07:03.394Z,9.03
2018-05-25T04:09:29.944Z,9.70
2018-05-25T04:11:56.572Z,7.67
2018-05-25T04:14:23.154Z,7.63
2018-05-25T04:16:49.718Z,6.70
2018-05-25T04:19:16.473Z,7.23
2018-05-25T04:21:43.040Z,7.17
2018-05-25T04:24:09.560Z,7.37
2018-05-25T04:26:36.117Z,8.43
2018-05-25T04:29:02.697Z,8.17
2018-05-25T04:31:29.291Z,8.87
2018-05-25T04:33:56.001Z,8.17
2018-05-25T04:36:29.556Z,8.67
2018-05-25T04:38:56.284Z,7.53
2018-05-25T04:41:23.152Z,7.97
2018-05-25T04:43:50.080Z,8.77
2018-05-25T04:46:16.689Z,7.87
2018-05-25T04:48:43.260Z,8.47
2018-05-25T04:51:09.826Z,8.63
2018-05-25T04:53:36.481Z,8.87
2018-05-25T04:56:03.093Z,8.40
2018-05-25T04:58:29.633Z,8.37
2018-05-25T05:00:56.337Z,9.20
2018-05-25T05:03:22.884Z,9.00
2018-05-25T05:05:49.493Z,8.73
2018-05-25T05:08:16.413Z,8.53
2018-05-25T05:10:43.047Z,8.03
2018-05-25T05:13:09.704Z,9.10
2018-05-25T05:15:36.416Z,8.43
2018-05-25T05:18:03.111Z,8.10
2018-05-25T05:20:29.613Z,8.07
2018-05-25T05:22:56.325Z,8.13
2018-05-25T05:25:23.053Z,8.00
2018-05-25T05:27:49.725Z,7.83
2018-05-25T05:30:16.324Z,7.13
2018-05-25T05:32:42.810Z,8.17
2018-05-25T05:35:09.397Z,7.07
2018-05-25T05:37:35.872Z,7.10
2018-05-25T05:40:02.519Z,7.43
2018-05-25T05:42:29.056Z,6.50
2018-05-25T05:44:55.586Z,6.30
2018-05-25T05:47:22.208Z,5.87
2018-05-25T05:49:48.890Z,5.93
2018-05-25T05:52:15.472Z,6.40
2018-05-25T05:54:42.220Z,6.33
2018-05-25T05:57:08.897Z,5.80
2018-05-25T05:59:35.514Z,5.77
2018-05-25T06:02:02.229Z,5.23
2018-05-25T06:04:28.780Z,5.50
2018-05-25T06:06:55.266Z,5.50
2018-05-25T06:09:21.864Z,5.30
2018-05-25T06:11:48.421Z,5.80
2018-05-25T06:14:14.998Z,4.90
2018-05-25T06:16:41.509Z,5.20
2018-05-25T06:19:08.265Z,5.03
2018-05-25T06:21:34.961Z,5.10
2018-05-25T06:24:01.568Z,4.70
2018-05-25T06:26:28.043Z,5.23
2018-05-25T06:28:54.603Z,5.63
2018-05-25T06:31:21.072Z,4.87
2018-05-25T06:33:47.457Z,5.13
2018-05-25T06:36:14.064Z,4.90
2018-05-25T06:38:40.749Z,4.30
2018-05-25T06:41:07.412Z,4.33
2018-05-25T06:43:34.140Z,4.93
2018-05-25T06:46:00.904Z,4.73
2018-05-25T06:48:27.634Z,4.40
2018-05-25T06:50:54.385Z,4.73
2018-05-25T06:53:20.930Z,5.87
2018-05-25T06:55:47.840Z,4.70
2018-05-25T06:58:18.098Z,5.43
2018-05-25T07:00:45.293Z,5.07
2018-05-25T07:03:12.106Z,4.43
2018-05-25T07:05:38.908Z,5.93
2018-05-25T07:08:05.648Z,4.90
2018-05-25T07:10:32.308Z,4.40
2018-05-25T07:12:59.194Z,5.20
2018-05-25T07:15:26.534Z,4.57
2018-05-25T07:17:53.110Z,4.57
2018-05-25T07:20:19.945Z,5.03
2018-05-25T07:22:46.729Z,4.17
2018-05-25T07:25:13.343Z,4.77
2018-05-25T07:27:39.866Z,4.83
2018-05-25T07:30:06.410Z,4.23
2018-05-25T07:32:32.978Z,4.20
2018-05-25T07:35:00.552Z,6.20
2018-05-25T07:37:27.342Z,5.77
2018-05-25T07:39:53.903Z,4.40
2018-05-25T07:42:20.688Z,4.90
2018-05-25T07:44:47.430Z,5.60
2018-05-25T07:47:14.196Z,5.03
2018-05-25T07:49:41.028Z,5.27
2018-05-25T07:52:07.804Z,4.83
2018-05-25T07:54:34.405Z,4.83
2018-05-25T07:57:01.730Z,5.00
2018-05-25T07:59:29.278Z,4.73
2018-05-25T08:01:58.313Z,4.53
2018-05-25T08:04:26.688Z,4.83
2018-05-25T08:06:54.310Z,4.87
2018-05-25T08:09:21.096Z,4.73
2018-05-25T08:11:47.724Z,4.90
2018-05-25T08:14:14.520Z,4.83
2018-05-25T08:16:41.846Z,4.63
2018-05-25T08:23:43.052Z,4.73
2018-05-25T08:26:10.578Z,4.90
2018-05-25T08:28:37.049Z,4.93
2018-05-25T08:31:03.684Z,4.60
2018-05-25T08:33:30.370Z,4.33
2018-05-25T08:35:56.909Z,4.40
2018-05-25T08:38:23.548Z,5.67
2018-05-25T08:40:50.224Z,4.80
2018-05-25T08:43:16.955Z,5.43
2018-05-25T08:45:44.349Z,4.77
2018-05-25T08:48:11.032Z,3.93
2018-05-25T08:50:38.227Z,4.60
2018-05-25T08:53:05.081Z,4.67
2018-05-25T08:55:31.888Z,4.20
2018-05-25T08:57:59.219Z,3.93
2018-05-25T09:00:26.436Z,4.63
2018-05-25T09:02:53.018Z,4.20
2018-05-25T09:05:19.826Z,4.27
2018-05-25T09:07:46.808Z,4.20
2018-05-25T09:10:13.661Z,4.83
2018-05-25T09:12:40.356Z,4.37
2018-05-25T09:15:07.116Z,3.70
2018-05-25T09:17:35.047Z,4.47
2018-05-25T09:20:02.048Z,7.33
2018-05-25T09:22:28.600Z,3.73
2018-05-25T09:24:55.181Z,4.37
2018-05-25T09:27:21.882Z,3.93
2018-05-25T09:29:48.555Z,3.93
2018-05-25T09:32:15.424Z,4.17
2018-05-25T09:34:42.286Z,5.87
2018-05-25T09:37:08.969Z,4.00
2018-05-25T09:39:35.702Z,4.07
2018-05-25T09:42:03.065Z,4.60
2018-05-25T09:44:29.727Z,4.03
2018-05-25T09:46:56.496Z,3.80
2018-05-25T09:49:23.362Z,4.37
2018-05-25T09:51:49.895Z,4.67
2018-05-25T09:54:16.587Z,3.93
2018-05-25T09:56:55.477Z,4.20
2018-05-25T09:59:22.060Z,4.33
2018-05-25T10:01:48.703Z,4.07
2018-05-25T10:04:15.259Z,4.03
2018-05-25T10:06:41.829Z,3.57
2018-05-25T10:09:08.505Z,3.93
2018-05-25T10:11:35.167Z,3.73
2018-05-25T10:14:01.817Z,3.67
2018-05-25T10:16:28.436Z,3.37
2018-05-25T10:18:55.116Z,4.30
2018-05-25T10:21:21.712Z,4.00
2018-05-25T10:23:48.396Z,4.00
2018-05-25T10:26:15.270Z,3.57
2018-05-25T10:28:41.995Z,4.10
2018-05-25T10:31:08.733Z,4.40
2018-05-25T10:33:35.579Z,4.93
2018-05-25T10:36:02.150Z,4.10
2018-05-25T10:38:28.761Z,4.20
2018-05-25T10:40:55.562Z,4.40
2018-05-25T10:43:22.279Z,4.13
2018-05-25T10:45:48.985Z,5.33
2018-05-25T10:48:15.722Z,3.97
2018-05-25T10:50:42.685Z,4.00
2018-05-25T10:53:12.099Z,4.30
2018-05-25T10:55:38.712Z,3.63
2018-05-25T10:58:07.341Z,3.90
2018-05-25T11:00:34.014Z,4.70
2018-05-25T11:03:00.595Z,4.20
2018-05-25T11:05:27.338Z,4.00
2018-05-25T11:07:54.026Z,3.53
2018-05-25T11:10:20.642Z,4.50
2018-05-25T11:12:47.378Z,4.13
2018-05-25T11:15:13.970Z,3.77
2018-05-25T11:17:40.488Z,4.13
2018-05-25T11:20:08.066Z,4.47
2018-05-25T11:22:34.677Z,4.33
2018-05-25T11:25:01.370Z,4.53
2018-05-25T11:27:28.259Z,4.53
2018-05-25T11:29:54.999Z,4.20
2018-05-25T11:32:21.749Z,4.10
2018-05-25T11:34:48.687Z,4.43
2018-05-25T11:37:15.772Z,5.10
2018-05-25T11:39:42.492Z,4.10
2018-05-25T11:42:09.584Z,4.47
2018-05-25T11:44:36.315Z,4.37
2018-05-25T11:47:02.991Z,4.00
2018-05-25T11:49:30.368Z,3.67
2018-05-25T11:51:57.007Z,4.33
2018-05-25T11:54:23.812Z,4.90
2018-05-25T11:59:24.793Z,4.27
2018-05-25T12:01:51.896Z,4.67
2018-05-25T12:04:19.580Z,4.00
2018-05-25T12:06:47.127Z,3.97
2018-05-25T12:09:19.336Z,4.03
2018-05-25T12:11:46.166Z,3.90
2018-05-25T12:14:12.825Z,4.10
2018-05-25T12:16:39.740Z,5.10
2018-05-25T12:19:07.573Z,5.07
2018-05-25T12:21:34.566Z,4.90
2018-05-25T12:24:03.121Z,4.33
2018-05-25T12:26:30.649Z,4.03
2018-05-25T12:28:58.464Z,4.00
2018-05-25T12:31:32.800Z,3.50
2018-05-25T12:33:59.636Z,2.93
2018-05-25T12:36:26.220Z,3.20
2018-05-25T12:38:53.306Z,3.53
2018-05-25T12:41:22.371Z,3.10
2018-05-25T12:43:49.421Z,3.73
2018-05-25T12:46:18.138Z,4.40
2018-05-25T12:48:46.213Z,3.20
2018-05-25T12:51:18.112Z,3.10
2018-05-25T12:53:52.460Z,2.90
2018-05-25T12:56:21.148Z,2.47
2018-05-25T12:58:53.409Z,2.87
2018-05-25T13:01:23.886Z,2.93
2018-05-25T13:04:00.790Z,2.63
2018-05-25T13:06:34.478Z,2.87
2018-05-25T13:09:01.413Z,2.50
2018-05-25T13:11:28.455Z,2.80
2018-05-25T13:13:56.667Z,2.33
2018-05-25T13:16:26.141Z,2.50
2018-05-25T13:18:54.985Z,2.77
2018-05-25T13:21:24.254Z,3.00
2018-05-25T13:23:55.795Z,2.77
2018-05-25T13:26:34.106Z,2.87
2018-05-25T13:29:04.262Z,2.80
2018-05-25T13:31:32.035Z,3.10
2018-05-25T13:33:58.884Z,2.17
2018-05-25T13:36:25.948Z,2.70
2018-05-25T13:38:52.756Z,2.80
2018-05-25T13:41:19.500Z,2.73
2018-05-25T13:43:47.594Z,2.90
2018-05-25T13:46:16.560Z,2.90
2018-05-25T13:48:45.838Z,2.70
2018-05-25T13:51:15.112Z,3.03
2018-05-25T13:53:44.765Z,2.73
2018-05-25T13:56:12.575Z,2.60
2018-05-25T13:58:42.884Z,2.97
2018-05-25T14:01:10.924Z,3.53
2018-05-25T14:03:40.010Z,3.33
2018-05-25T14:06:08.236Z,3.50
2018-05-25T14:08:36.620Z,3.27
2018-05-25T14:11:04.414Z,4.30
2018-05-25T14:13:31.096Z,3.63
2018-05-25T14:15:58.368Z,3.97
2018-05-25T14:18:26.285Z,4.30
2018-05-25T14:20:53.017Z,6.23
2018-05-25T14:23:19.681Z,4.80
2018-05-25T14:25:46.297Z,4.00
2018-05-25T14:28:12.813Z,3.80
2018-05-25T14:30:39.277Z,4.20
2018-05-25T14:33:05.792Z,3.40
2018-05-25T14:38:47.508Z,3.70
2018-05-25T14:41:14.128Z,3.60
2018-05-25T14:43:40.881Z,3.40
2018-05-25T14:46:08.426Z,3.73
2018-05-25T14:48:34.977Z,3.70
2018-05-25T14:51:01.495Z,4.03
2018-05-25T14:53:28.025Z,4.47
2018-05-25T14:55:54.496Z,3.57
2018-05-25T14:58:21.004Z,3.10
2018-05-25T15:09:24.509Z,3.07
2018-05-25T15:11:52.851Z,3.47
2018-05-25T15:14:19.681Z,3.60
2018-05-25T15:16:46.288Z,4.07
2018-05-25T15:19:12.928Z,3.80
2018-05-25T15:21:39.561Z,3.37
2018-05-25T15:27:20.169Z,3.43
2018-05-25T15:34:24.457Z,3.07
2018-05-25T15:58:28.063Z,4.43
2018-05-25T16:01:08.955Z,4.30
2018-05-25T16:09:47.759Z,4.07
2018-05-25T16:12:18.407Z,5.30
2018-05-25T16:54:06.433Z,5.00
2018-05-25T16:56:33.876Z,6.00
2018-05-25T16:59:00.473Z,6.50
2018-05-25T17:01:26.955Z,6.90
2018-05-25T17:03:53.749Z,6.50
2018-05-25T17:06:25.304Z,7.20
2018-05-25T17:08:53.136Z,6.43
2018-05-25T17:11:19.813Z,5.60
2018-05-25T17:13:47.137Z,5.80
2018-05-25T17:16:13.913Z,5.17
2018-05-25T17:18:40.810Z,5.83
2018-05-25T17:21:08.642Z,6.40
2018-05-25T17:23:35.097Z,6.07
2018-05-25T17:26:14.904Z,5.87
2018-05-25T17:28:42.610Z,5.80
2018-05-25T17:34:18.449Z,5.60
2018-05-25T17:36:44.945Z,5.90
2018-05-25T17:39:11.405Z,5.80
2018-05-25T17:41:40.039Z,5.93
2018-05-25T17:44:08.804Z,5.70
2018-05-25T17:46:35.436Z,6.00
2018-05-25T17:49:02.284Z,6.00
2018-05-25T17:51:29.633Z,6.50
2018-05-25T17:53:56.257Z,5.23
2018-05-25T17:56:22.876Z,6.00
2018-05-25T17:58:49.573Z,4.80
2018-05-25T18:01:16.117Z,5.67
2018-05-25T18:03:42.620Z,4.80
2018-05-25T18:06:09.381Z,4.83
2018-05-25T18:08:35.981Z,4.60
2018-05-25T18:11:02.965Z,5.83
2018-05-25T18:13:29.433Z,4.50
2018-05-25T18:15:56.788Z,4.47
2018-05-25T18:18:23.348Z,5.30
2018-05-25T18:20:49.976Z,4.73
2018-05-25T18:23:16.463Z,4.70
2018-05-25T18:25:42.949Z,5.10
2018-05-25T18:28:09.452Z,5.07
2018-05-25T18:30:36.101Z,5.23
2018-05-25T18:33:02.612Z,4.20
2018-05-25T18:35:29.194Z,4.93
2018-05-25T18:37:55.729Z,4.50
2018-05-25T18:40:22.216Z,4.43
2018-05-25T18:42:48.665Z,5.07
2018-05-25T18:45:15.253Z,3.93
2018-05-25T18:47:41.698Z,5.77
2018-05-25T18:50:11.476Z,5.10
2018-05-25T18:52:38.148Z,4.87
2018-05-25T18:55:04.806Z,4.33
2018-05-25T18:57:31.336Z,4.50
2018-05-25T18:59:57.937Z,4.30
2018-05-25T19:02:24.685Z,4.90
2018-05-25T19:04:52.238Z,5.23
2018-05-25T19:07:18.940Z,4.43
2018-05-25T19:09:45.435Z,4.53
2018-05-25T19:12:12.115Z,4.27
2018-05-25T19:14:38.736Z,4.50
2018-05-25T19:17:06.034Z,4.30
2018-05-25T19:19:32.581Z,4.67
2018-05-25T19:21:59.319Z,5.30
2018-05-25T19:24:25.868Z,7.73
2018-05-25T19:26:52.401Z,6.30
2018-05-25T19:29:19.511Z,12.37
2018-05-25T19:31:50.289Z,7.20
2018-05-25T19:34:19.784Z,17.63
2018-05-25T19:36:46.331Z,9.67
2018-05-25T19:39:12.982Z,10.97
2018-05-25T19:44:49.981Z,6.70
2018-05-25T19:47:16.725Z,6.17
2018-05-25T19:49:43.238Z,5.40
2018-05-25T19:52:13.942Z,5.27
2018-05-25T19:54:42.193Z,4.70
2018-05-25T19:59:52.233Z,4.53
2018-05-25T20:08:44.893Z,4.83
2018-05-25T20:24:32.668Z,4.83
2018-05-25T20:26:59.383Z,4.90
2018-05-25T20:29:26.039Z,5.17
2018-05-25T20:31:52.653Z,5.10
2018-05-25T20:34:19.315Z,4.57
2018-05-25T20:36:45.877Z,4.30
2018-05-25T20:39:59.939Z,4.60
2018-05-25T20:42:29.542Z,3.73
2018-05-25T20:44:56.147Z,3.80
2018-05-25T20:47:22.886Z,4.23
2018-05-25T20:49:53.947Z,4.50
2018-05-25T20:52:20.682Z,4.57
2018-05-25T20:54:47.184Z,4.10
2018-05-25T20:57:23.758Z,4.07
2018-05-25T20:59:50.598Z,4.07
2018-05-25T21:02:17.167Z,4.13
2018-05-25T21:04:43.792Z,4.27
2018-05-25T21:07:10.543Z,4.03
2018-05-25T21:09:37.225Z,3.83
2018-05-25T21:12:03.965Z,4.20
2018-05-25T21:14:41.852Z,4.33
2018-05-25T21:17:27.230Z,3.80
2018-05-25T21:19:54.161Z,4.47
2018-05-25T21:22:20.549Z,4.47
2018-05-25T21:24:47.042Z,4.03
2018-05-25T21:30:30.819Z,5.00
2018-05-25T21:33:02.073Z,4.50
2018-05-25T21:35:32.548Z,4.50
2018-05-25T21:38:02.593Z,4.23
2018-05-25T21:40:31.244Z,3.90
2018-05-25T21:42:59.050Z,4.30
2018-05-25T21:45:50.167Z,4.40
2018-05-25T21:48:18.261Z,4.10
2018-05-25T21:50:49.436Z,4.80
2018-05-25T21:53:16.286Z,4.83
2018-05-25T21:55:44.837Z,4.60
2018-05-25T21:58:13.356Z,4.80
2018-05-25T22:00:39.998Z,4.50
2018-05-25T22:03:07.537Z,5.00
2018-05-25T22:05:34.062Z,4.97
2018-05-25T22:08:00.568Z,5.57
2018-05-25T22:17:10.668Z,5.50
2018-05-25T22:19:37.443Z,5.47
2018-05-25T22:22:04.360Z,5.63
2018-05-25T22:24:30.832Z,5.60
2018-05-25T22:26:59.138Z,5.30
2018-05-25T22:29:26.051Z,5.50
2018-05-25T22:31:53.367Z,6.13
2018-05-25T22:34:26.413Z,5.50
2018-05-25T22:36:56.271Z,5.30
2018-05-25T22:39:23.168Z,5.60
2018-05-25T22:41:53.335Z,6.23
2018-05-25T22:44:33.148Z,5.00
2018-05-25T22:47:18.634Z,5.00
2018-05-25T22:50:03.588Z,5.80
2018-05-25T22:52:42.073Z,5.10
2018-05-25T22:55:14.133Z,5.07
2018-05-25T22:57:42.072Z,5.97
2018-05-25T23:00:09.470Z,6.00
2018-05-25T23:02:37.083Z,5.77
2018-05-25T23:05:04.756Z,5.60
2018-05-25T23:07:32.598Z,5.60
2018-05-25T23:09:59.310Z,5.27
2018-05-25T23:12:25.968Z,5.10
2018-05-25T23:14:52.873Z,5.73
2018-05-25T23:17:19.755Z,6.50
2018-05-25T23:19:47.617Z,6.07
2018-05-25T23:22:15.220Z,5.70
2018-05-25T23:24:45.005Z,5.83
2018-05-25T23:27:12.007Z,5.50
2018-05-25T23:29:39.606Z,5.33
2018-05-25T23:32:11.329Z,5.43
2018-05-25T23:34:38.399Z,5.30
2018-05-25T23:37:06.765Z,5.97
2018-05-25T23:39:33.823Z,6.20
2018-05-25T23:42:01.471Z,6.20
2018-05-25T23:44:29.202Z,5.93
2018-05-25T23:46:57.008Z,5.50
2018-05-25T23:49:27.046Z,6.37
2018-05-25T23:52:07.107Z,6.13
2018-05-25T23:54:37.227Z,5.97
2018-05-25T23:57:06.919Z,6.20
2018-05-25T23:59:42.376Z,5.90
